sensor_id;sensor_type;location;lat;lon;timestamp;P1;durP1;ratioP1;P2;durP2;ratioP2
15946;SDS011;8072;52.554;7.966;2023-02-28T00:02:18;13.97;;;7.57;;
15946;SDS011;8072;52.554;7.966;2023-02-28T00:04:44;11.60;;;7.00;;
15946;SDS011;8072;52.554;7.966;2023-02-28T00:07:17;11.77;;;6.93;;
15946;SDS011;8072;52.554;7.966;2023-02-28T00:09:44;14.37;;;7.50;;
15946;SDS011;8072;52.554;7.966;2023-02-28T00:12:09;10.53;;;6.53;;
15946;SDS011;8072;52.554;7.966;2023-02-28T00:14:36;9.70;;;6.77;;
15946;SDS011;8072;52.554;7.966;2023-02-28T00:17:01;14.20;;;7.07;;
15946;SDS011;8072;52.554;7.966;2023-02-28T00:19:27;11.73;;;7.60;;
15946;SDS011;8072;52.554;7.966;2023-02-28T00:21:53;12.37;;;7.17;;
15946;SDS011;8072;52.554;7.966;2023-02-28T00:24:19;11.53;;;7.60;;
15946;SDS011;8072;52.554;7.966;2023-02-28T00:26:44;13.37;;;8.47;;
15946;SDS011;8072;52.554;7.966;2023-02-28T00:29:11;12.40;;;8.03;;
15946;SDS011;8072;52.554;7.966;2023-02-28T00:31:37;13.63;;;7.70;;
15946;SDS011;8072;52.554;7.966;2023-02-28T00:34:03;10.57;;;7.63;;
15946;SDS011;8072;52.554;7.966;2023-02-28T00:36:28;10.97;;;7.37;;
15946;SDS011;8072;52.554;7.966;2023-02-28T00:38:54;14.83;;;7.73;;
15946;SDS011;8072;52.554;7.966;2023-02-28T00:41:20;12.67;;;8.37;;
15946;SDS011;8072;52.554;7.966;2023-02-28T00:43:45;12.90;;;7.47;;
15946;SDS011;8072;52.554;7.966;2023-02-28T00:46:11;10.87;;;7.60;;
15946;SDS011;8072;52.554;7.966;2023-02-28T00:48:37;12.13;;;8.03;;
15946;SDS011;8072;52.554;7.966;2023-02-28T00:51:02;10.33;;;7.37;;
15946;SDS011;8072;52.554;7.966;2023-02-28T00:53:29;10.87;;;8.00;;
15946;SDS011;8072;52.554;7.966;2023-02-28T00:55:55;13.00;;;7.90;;
15946;SDS011;8072;52.554;7.966;2023-02-28T00:58:21;13.70;;;8.47;;
15946;SDS011;8072;52.554;7.966;2023-02-28T01:00:46;11.93;;;7.70;;
15946;SDS011;8072;52.554;7.966;2023-02-28T01:03:18;11.63;;;8.33;;
15946;SDS011;8072;52.554;7.966;2023-02-28T01:05:45;13.00;;;7.97;;
15946;SDS011;8072;52.554;7.966;2023-02-28T01:08:11;13.97;;;8.53;;
15946;SDS011;8072;52.554;7.966;2023-02-28T01:10:38;13.30;;;7.77;;
15946;SDS011;8072;52.554;7.966;2023-02-28T01:13:04;11.17;;;7.33;;
15946;SDS011;8072;52.554;7.966;2023-02-28T01:15:30;13.87;;;7.63;;
15946;SDS011;8072;52.554;7.966;2023-02-28T01:17:57;10.50;;;7.40;;
15946;SDS011;8072;52.554;7.966;2023-02-28T01:20:23;14.53;;;8.60;;
15946;SDS011;8072;52.554;7.966;2023-02-28T01:22:49;13.33;;;8.07;;
15946;SDS011;8072;52.554;7.966;2023-02-28T01:25:14;14.17;;;8.23;;
15946;SDS011;8072;52.554;7.966;2023-02-28T01:27:40;10.57;;;7.50;;
15946;SDS011;8072;52.554;7.966;2023-02-28T01:30:07;10.60;;;7.83;;
15946;SDS011;8072;52.554;7.966;2023-02-28T01:32:35;13.10;;;7.23;;
15946;SDS011;8072;52.554;7.966;2023-02-28T01:35:01;13.47;;;8.67;;
15946;SDS011;8072;52.554;7.966;2023-02-28T01:37:27;13.93;;;8.03;;
15946;SDS011;8072;52.554;7.966;2023-02-28T01:39:53;12.37;;;8.00;;
15946;SDS011;8072;52.554;7.966;2023-02-28T01:42:19;13.30;;;7.50;;
15946;SDS011;8072;52.554;7.966;2023-02-28T01:47:44;11.43;;;6.83;;
15946;SDS011;8072;52.554;7.966;2023-02-28T01:50:16;8.83;;;6.63;;
15946;SDS011;8072;52.554;7.966;2023-02-28T01:52:45;14.87;;;7.97;;
15946;SDS011;8072;52.554;7.966;2023-02-28T01:55:13;9.67;;;7.40;;
15946;SDS011;8072;52.554;7.966;2023-02-28T01:57:46;11.17;;;7.30;;
15946;SDS011;8072;52.554;7.966;2023-02-28T02:00:16;11.53;;;6.60;;
15946;SDS011;8072;52.554;7.966;2023-02-28T02:02:45;11.77;;;7.30;;
15946;SDS011;8072;52.554;7.966;2023-02-28T02:05:17;12.73;;;7.63;;
15946;SDS011;8072;52.554;7.966;2023-02-28T02:07:49;9.63;;;7.17;;
15946;SDS011;8072;52.554;7.966;2023-02-28T02:10:20;11.80;;;7.43;;
15946;SDS011;8072;52.554;7.966;2023-02-28T02:37:51;11.63;;;7.70;;
15946;SDS011;8072;52.554;7.966;2023-02-28T02:40:35;11.83;;;8.00;;
15946;SDS011;8072;52.554;7.966;2023-02-28T02:45:59;12.50;;;7.10;;
15946;SDS011;8072;52.554;7.966;2023-02-28T02:48:36;15.53;;;8.80;;
15946;SDS011;8072;52.554;7.966;2023-02-28T02:51:07;15.37;;;8.23;;
15946;SDS011;8072;52.554;7.966;2023-02-28T02:53:40;11.77;;;8.30;;
15946;SDS011;8072;52.554;7.966;2023-02-28T02:56:14;11.77;;;8.20;;
15946;SDS011;8072;52.554;7.966;2023-02-28T02:58:43;13.07;;;8.30;;
15946;SDS011;8072;52.554;7.966;2023-02-28T03:01:19;12.20;;;7.90;;
15946;SDS011;8072;52.554;7.966;2023-02-28T03:03:54;13.77;;;8.87;;
15946;SDS011;8072;52.554;7.966;2023-02-28T03:06:22;11.27;;;7.67;;
15946;SDS011;8072;52.554;7.966;2023-02-28T03:08:47;13.93;;;8.57;;
15946;SDS011;8072;52.554;7.966;2023-02-28T03:11:14;14.50;;;7.93;;
15946;SDS011;8072;52.554;7.966;2023-02-28T03:13:52;12.50;;;7.60;;
15946;SDS011;8072;52.554;7.966;2023-02-28T03:16:33;13.93;;;8.23;;
15946;SDS011;8072;52.554;7.966;2023-02-28T03:27:11;10.83;;;7.80;;
15946;SDS011;8072;52.554;7.966;2023-02-28T03:30:09;12.37;;;7.57;;
15946;SDS011;8072;52.554;7.966;2023-02-28T03:32:53;16.87;;;8.30;;
15946;SDS011;8072;52.554;7.966;2023-02-28T03:35:28;12.83;;;7.90;;
15946;SDS011;8072;52.554;7.966;2023-02-28T03:38:00;11.17;;;7.47;;
15946;SDS011;8072;52.554;7.966;2023-02-28T03:40:33;11.10;;;7.77;;
15946;SDS011;8072;52.554;7.966;2023-02-28T03:43:03;13.07;;;8.33;;
15946;SDS011;8072;52.554;7.966;2023-02-28T03:45:34;12.87;;;7.97;;
15946;SDS011;8072;52.554;7.966;2023-02-28T03:48:23;13.60;;;7.73;;
15946;SDS011;8072;52.554;7.966;2023-02-28T03:50:57;11.07;;;7.77;;
15946;SDS011;8072;52.554;7.966;2023-02-28T03:53:26;15.57;;;7.87;;
15946;SDS011;8072;52.554;7.966;2023-02-28T03:56:05;14.87;;;9.47;;
15946;SDS011;8072;52.554;7.966;2023-02-28T04:01:50;14.77;;;9.03;;
15946;SDS011;8072;52.554;7.966;2023-02-28T04:04:17;14.83;;;9.10;;
15946;SDS011;8072;52.554;7.966;2023-02-28T04:06:43;12.67;;;9.03;;
15946;SDS011;8072;52.554;7.966;2023-02-28T04:09:11;17.83;;;9.17;;
15946;SDS011;8072;52.554;7.966;2023-02-28T04:11:39;13.40;;;9.03;;
15946;SDS011;8072;52.554;7.966;2023-02-28T04:14:08;14.73;;;9.27;;
15946;SDS011;8072;52.554;7.966;2023-02-28T04:16:35;16.27;;;9.20;;
15946;SDS011;8072;52.554;7.966;2023-02-28T04:19:03;14.53;;;8.50;;
15946;SDS011;8072;52.554;7.966;2023-02-28T04:21:34;13.17;;;8.80;;
15946;SDS011;8072;52.554;7.966;2023-02-28T04:24:05;13.67;;;8.93;;
15946;SDS011;8072;52.554;7.966;2023-02-28T04:26:32;12.03;;;8.30;;
15946;SDS011;8072;52.554;7.966;2023-02-28T04:29:00;15.53;;;9.10;;
15946;SDS011;8072;52.554;7.966;2023-02-28T04:31:27;14.30;;;8.83;;
15946;SDS011;8072;52.554;7.966;2023-02-28T04:33:53;14.03;;;8.70;;
15946;SDS011;8072;52.554;7.966;2023-02-28T04:36:19;12.83;;;7.97;;
15946;SDS011;8072;52.554;7.966;2023-02-28T04:38:45;12.60;;;8.17;;
15946;SDS011;8072;52.554;7.966;2023-02-28T04:41:12;12.70;;;8.13;;
15946;SDS011;8072;52.554;7.966;2023-02-28T04:43:38;13.57;;;7.73;;
15946;SDS011;8072;52.554;7.966;2023-02-28T04:46:04;16.57;;;8.07;;
15946;SDS011;8072;52.554;7.966;2023-02-28T04:48:32;14.90;;;8.10;;
15946;SDS011;8072;52.554;7.966;2023-02-28T04:51:03;12.03;;;7.90;;
15946;SDS011;8072;52.554;7.966;2023-02-28T04:53:34;12.60;;;8.20;;
15946;SDS011;8072;52.554;7.966;2023-02-28T04:56:01;11.50;;;7.53;;
15946;SDS011;8072;52.554;7.966;2023-02-28T04:58:27;12.80;;;8.53;;
15946;SDS011;8072;52.554;7.966;2023-02-28T05:00:53;16.70;;;8.10;;
15946;SDS011;8072;52.554;7.966;2023-02-28T05:03:19;14.43;;;7.63;;
15946;SDS011;8072;52.554;7.966;2023-02-28T05:05:47;13.00;;;7.93;;
15946;SDS011;8072;52.554;7.966;2023-02-28T05:08:13;12.13;;;7.97;;
15946;SDS011;8072;52.554;7.966;2023-02-28T05:10:39;11.60;;;8.03;;
15946;SDS011;8072;52.554;7.966;2023-02-28T05:13:05;11.63;;;7.53;;
15946;SDS011;8072;52.554;7.966;2023-02-28T05:15:30;10.90;;;6.83;;
15946;SDS011;8072;52.554;7.966;2023-02-28T05:17:56;10.73;;;7.17;;
15946;SDS011;8072;52.554;7.966;2023-02-28T05:20:22;12.10;;;8.27;;
15946;SDS011;8072;52.554;7.966;2023-02-28T05:22:49;9.60;;;7.83;;
15946;SDS011;8072;52.554;7.966;2023-02-28T05:25:19;12.00;;;8.20;;
15946;SDS011;8072;52.554;7.966;2023-02-28T05:27:49;11.17;;;7.83;;
15946;SDS011;8072;52.554;7.966;2023-02-28T05:30:14;12.47;;;8.03;;
15946;SDS011;8072;52.554;7.966;2023-02-28T05:32:41;11.63;;;7.80;;
15946;SDS011;8072;52.554;7.966;2023-02-28T05:35:10;12.37;;;8.10;;
15946;SDS011;8072;52.554;7.966;2023-02-28T05:37:36;9.83;;;7.13;;
15946;SDS011;8072;52.554;7.966;2023-02-28T05:40:03;10.27;;;6.97;;
15946;SDS011;8072;52.554;7.966;2023-02-28T05:42:32;9.83;;;7.10;;
15946;SDS011;8072;52.554;7.966;2023-02-28T05:44:58;11.57;;;7.90;;
15946;SDS011;8072;52.554;7.966;2023-02-28T05:47:24;11.97;;;7.30;;
15946;SDS011;8072;52.554;7.966;2023-02-28T05:49:49;8.67;;;6.87;;
15946;SDS011;8072;52.554;7.966;2023-02-28T05:52:15;9.97;;;7.20;;
15946;SDS011;8072;52.554;7.966;2023-02-28T05:54:42;12.50;;;7.17;;
15946;SDS011;8072;52.554;7.966;2023-02-28T05:57:08;11.27;;;7.40;;
15946;SDS011;8072;52.554;7.966;2023-02-28T05:59:34;12.60;;;7.37;;
15946;SDS011;8072;52.554;7.966;2023-02-28T06:01:59;11.70;;;6.73;;
15946;SDS011;8072;52.554;7.966;2023-02-28T06:04:25;10.33;;;7.87;;
15946;SDS011;8072;52.554;7.966;2023-02-28T06:06:51;12.53;;;7.57;;
15946;SDS011;8072;52.554;7.966;2023-02-28T06:09:17;10.00;;;6.73;;
15946;SDS011;8072;52.554;7.966;2023-02-28T06:11:44;8.10;;;6.87;;
15946;SDS011;8072;52.554;7.966;2023-02-28T06:14:12;9.07;;;7.30;;
15946;SDS011;8072;52.554;7.966;2023-02-28T06:16:41;10.90;;;7.27;;
15946;SDS011;8072;52.554;7.966;2023-02-28T06:19:07;10.77;;;7.23;;
15946;SDS011;8072;52.554;7.966;2023-02-28T06:21:34;8.70;;;6.60;;
15946;SDS011;8072;52.554;7.966;2023-02-28T06:23:59;8.07;;;6.63;;
15946;SDS011;8072;52.554;7.966;2023-02-28T06:26:25;10.30;;;7.53;;
15946;SDS011;8072;52.554;7.966;2023-02-28T06:28:51;11.60;;;7.30;;
15946;SDS011;8072;52.554;7.966;2023-02-28T06:31:18;11.10;;;7.43;;
15946;SDS011;8072;52.554;7.966;2023-02-28T06:33:44;11.80;;;7.60;;
15946;SDS011;8072;52.554;7.966;2023-02-28T06:36:11;8.60;;;6.67;;
15946;SDS011;8072;52.554;7.966;2023-02-28T06:38:38;13.53;;;7.77;;
15946;SDS011;8072;52.554;7.966;2023-02-28T06:41:04;13.37;;;7.40;;
15946;SDS011;8072;52.554;7.966;2023-02-28T06:43:32;10.43;;;6.97;;
15946;SDS011;8072;52.554;7.966;2023-02-28T06:46:01;11.50;;;7.60;;
15946;SDS011;8072;52.554;7.966;2023-02-28T06:48:28;9.80;;;7.70;;
15946;SDS011;8072;52.554;7.966;2023-02-28T06:51:07;13.50;;;8.00;;
15946;SDS011;8072;52.554;7.966;2023-02-28T06:53:34;11.37;;;6.73;;
15946;SDS011;8072;52.554;7.966;2023-02-28T06:56:07;10.77;;;7.53;;
15946;SDS011;8072;52.554;7.966;2023-02-28T06:58:37;9.70;;;6.53;;
15946;SDS011;8072;52.554;7.966;2023-02-28T07:01:05;9.30;;;6.50;;
15946;SDS011;8072;52.554;7.966;2023-02-28T07:03:31;13.30;;;7.70;;
15946;SDS011;8072;52.554;7.966;2023-02-28T07:05:57;9.13;;;7.13;;
15946;SDS011;8072;52.554;7.966;2023-02-28T07:08:23;10.80;;;7.20;;
15946;SDS011;8072;52.554;7.966;2023-02-28T07:10:53;9.67;;;7.90;;
15946;SDS011;8072;52.554;7.966;2023-02-28T07:13:19;14.67;;;7.73;;
15946;SDS011;8072;52.554;7.966;2023-02-28T07:15:53;9.97;;;7.90;;
15946;SDS011;8072;52.554;7.966;2023-02-28T07:18:20;12.33;;;7.60;;
15946;SDS011;8072;52.554;7.966;2023-02-28T07:20:46;11.77;;;7.70;;
15946;SDS011;8072;52.554;7.966;2023-02-28T07:23:12;12.40;;;7.67;;
15946;SDS011;8072;52.554;7.966;2023-02-28T07:25:38;10.60;;;7.47;;
15946;SDS011;8072;52.554;7.966;2023-02-28T07:28:04;14.00;;;8.37;;
15946;SDS011;8072;52.554;7.966;2023-02-28T07:30:31;10.50;;;7.93;;
15946;SDS011;8072;52.554;7.966;2023-02-28T07:32:57;11.67;;;7.63;;
15946;SDS011;8072;52.554;7.966;2023-02-28T07:35:23;11.67;;;8.43;;
15946;SDS011;8072;52.554;7.966;2023-02-28T07:37:49;11.70;;;8.57;;
15946;SDS011;8072;52.554;7.966;2023-02-28T07:40:15;13.70;;;8.20;;
15946;SDS011;8072;52.554;7.966;2023-02-28T07:42:43;14.30;;;8.90;;
15946;SDS011;8072;52.554;7.966;2023-02-28T07:45:09;13.67;;;8.37;;
15946;SDS011;8072;52.554;7.966;2023-02-28T07:47:39;11.23;;;8.60;;
15946;SDS011;8072;52.554;7.966;2023-02-28T07:50:09;11.40;;;8.33;;
15946;SDS011;8072;52.554;7.966;2023-02-28T07:52:36;9.50;;;7.73;;
15946;SDS011;8072;52.554;7.966;2023-02-28T07:55:03;12.07;;;8.00;;
15946;SDS011;8072;52.554;7.966;2023-02-28T07:57:30;15.07;;;8.57;;
15946;SDS011;8072;52.554;7.966;2023-02-28T07:59:57;12.57;;;7.93;;
15946;SDS011;8072;52.554;7.966;2023-02-28T08:02:23;11.20;;;8.80;;
15946;SDS011;8072;52.554;7.966;2023-02-28T08:04:48;14.97;;;8.57;;
15946;SDS011;8072;52.554;7.966;2023-02-28T08:07:15;10.13;;;8.37;;
15946;SDS011;8072;52.554;7.966;2023-02-28T08:09:42;11.97;;;8.40;;
15946;SDS011;8072;52.554;7.966;2023-02-28T08:12:09;11.97;;;8.70;;
15946;SDS011;8072;52.554;7.966;2023-02-28T08:14:36;12.63;;;8.20;;
15946;SDS011;8072;52.554;7.966;2023-02-28T08:17:03;9.43;;;8.17;;
15946;SDS011;8072;52.554;7.966;2023-02-28T08:19:29;11.23;;;8.30;;
15946;SDS011;8072;52.554;7.966;2023-02-28T08:21:55;14.30;;;8.67;;
15946;SDS011;8072;52.554;7.966;2023-02-28T08:24:22;10.93;;;9.07;;
15946;SDS011;8072;52.554;7.966;2023-02-28T08:26:49;11.30;;;8.97;;
15946;SDS011;8072;52.554;7.966;2023-02-28T08:29:15;11.73;;;8.10;;
15946;SDS011;8072;52.554;7.966;2023-02-28T08:31:41;11.77;;;7.80;;
15946;SDS011;8072;52.554;7.966;2023-02-28T08:34:12;11.90;;;7.50;;
15946;SDS011;8072;52.554;7.966;2023-02-28T08:36:39;8.80;;;6.63;;
15946;SDS011;8072;52.554;7.966;2023-02-28T08:39:06;12.67;;;7.43;;
15946;SDS011;8072;52.554;7.966;2023-02-28T08:41:32;11.03;;;7.33;;
15946;SDS011;8072;52.554;7.966;2023-02-28T08:43:58;10.80;;;7.10;;
15946;SDS011;8072;52.554;7.966;2023-02-28T08:46:25;8.87;;;6.70;;
15946;SDS011;8072;52.554;7.966;2023-02-28T08:48:51;8.87;;;6.70;;
15946;SDS011;8072;52.554;7.966;2023-02-28T08:51:19;11.57;;;5.87;;
15946;SDS011;8072;52.554;7.966;2023-02-28T08:53:51;7.90;;;6.00;;
15946;SDS011;8072;52.554;7.966;2023-02-28T08:56:22;8.47;;;5.87;;
15946;SDS011;8072;52.554;7.966;2023-02-28T08:58:49;8.33;;;5.20;;
15946;SDS011;8072;52.554;7.966;2023-02-28T09:01:19;8.30;;;5.17;;
15946;SDS011;8072;52.554;7.966;2023-02-28T09:03:49;5.67;;;4.40;;
15946;SDS011;8072;52.554;7.966;2023-02-28T09:06:16;7.03;;;4.70;;
15946;SDS011;8072;52.554;7.966;2023-02-28T09:08:43;6.30;;;4.00;;
15946;SDS011;8072;52.554;7.966;2023-02-28T09:11:09;6.57;;;4.10;;
15946;SDS011;8072;52.554;7.966;2023-02-28T09:13:36;4.17;;;3.70;;
15946;SDS011;8072;52.554;7.966;2023-02-28T09:16:03;6.60;;;2.60;;
15946;SDS011;8072;52.554;7.966;2023-02-28T09:18:30;3.40;;;2.83;;
15946;SDS011;8072;52.554;7.966;2023-02-28T09:20:56;3.10;;;2.80;;
15946;SDS011;8072;52.554;7.966;2023-02-28T09:23:23;4.33;;;2.70;;
15946;SDS011;8072;52.554;7.966;2023-02-28T09:25:50;3.10;;;2.80;;
15946;SDS011;8072;52.554;7.966;2023-02-28T09:28:17;3.53;;;2.67;;
15946;SDS011;8072;52.554;7.966;2023-02-28T09:30:44;3.20;;;2.70;;
15946;SDS011;8072;52.554;7.966;2023-02-28T09:33:12;2.43;;;2.00;;
15946;SDS011;8072;52.554;7.966;2023-02-28T09:35:38;3.37;;;2.40;;
15946;SDS011;8072;52.554;7.966;2023-02-28T09:38:04;2.50;;;2.30;;
15946;SDS011;8072;52.554;7.966;2023-02-28T09:40:34;2.70;;;2.50;;
15946;SDS011;8072;52.554;7.966;2023-02-28T09:43:02;3.87;;;3.03;;
15946;SDS011;8072;52.554;7.966;2023-02-28T09:45:33;3.07;;;2.10;;
15946;SDS011;8072;52.554;7.966;2023-02-28T09:48:10;2.43;;;2.23;;
15946;SDS011;8072;52.554;7.966;2023-02-28T09:50:45;3.13;;;2.10;;
15946;SDS011;8072;52.554;7.966;2023-02-28T09:53:36;2.20;;;1.77;;
15946;SDS011;8072;52.554;7.966;2023-02-28T09:56:05;4.13;;;2.00;;
15946;SDS011;8072;52.554;7.966;2023-02-28T10:07:00;4.37;;;1.87;;
15946;SDS011;8072;52.554;7.966;2023-02-28T10:09:31;3.30;;;2.20;;
15946;SDS011;8072;52.554;7.966;2023-02-28T10:12:02;1.97;;;1.83;;
15946;SDS011;8072;52.554;7.966;2023-02-28T10:14:30;2.30;;;2.10;;
15946;SDS011;8072;52.554;7.966;2023-02-28T10:17:01;3.10;;;1.87;;
15946;SDS011;8072;52.554;7.966;2023-02-28T10:19:42;5.73;;;2.20;;
15946;SDS011;8072;52.554;7.966;2023-02-28T10:22:19;5.70;;;2.23;;
15946;SDS011;8072;52.554;7.966;2023-02-28T10:24:50;2.23;;;2.00;;
15946;SDS011;8072;52.554;7.966;2023-02-28T10:27:35;2.70;;;2.27;;
15946;SDS011;8072;52.554;7.966;2023-02-28T10:30:01;2.00;;;1.60;;
15946;SDS011;8072;52.554;7.966;2023-02-28T10:32:34;1.60;;;1.50;;
15946;SDS011;8072;52.554;7.966;2023-02-28T10:37:47;1.57;;;1.40;;
15946;SDS011;8072;52.554;7.966;2023-02-28T10:45:35;2.13;;;1.60;;
15946;SDS011;8072;52.554;7.966;2023-02-28T10:48:23;1.93;;;1.37;;
15946;SDS011;8072;52.554;7.966;2023-02-28T10:51:14;2.50;;;1.50;;
15946;SDS011;8072;52.554;7.966;2023-02-28T10:53:48;1.40;;;1.30;;
15946;SDS011;8072;52.554;7.966;2023-02-28T10:58:47;1.50;;;1.40;;
15946;SDS011;8072;52.554;7.966;2023-02-28T11:06:48;1.57;;;1.47;;
15946;SDS011;8072;52.554;7.966;2023-02-28T11:12:00;2.13;;;1.40;;
15946;SDS011;8072;52.554;7.966;2023-02-28T11:14:30;1.27;;;1.17;;
15946;SDS011;8072;52.554;7.966;2023-02-28T11:17:02;2.57;;;1.77;;
15946;SDS011;8072;52.554;7.966;2023-02-28T11:19:50;1.97;;;1.37;;
15946;SDS011;8072;52.554;7.966;2023-02-28T11:22:18;1.90;;;1.47;;
15946;SDS011;8072;52.554;7.966;2023-02-28T11:24:47;1.70;;;1.40;;
15946;SDS011;8072;52.554;7.966;2023-02-28T11:29:55;1.63;;;1.53;;
15946;SDS011;8072;52.554;7.966;2023-02-28T11:32:22;2.57;;;1.37;;
15946;SDS011;8072;52.554;7.966;2023-02-28T11:37:44;1.60;;;1.50;;
15946;SDS011;8072;52.554;7.966;2023-02-28T11:40:15;1.40;;;1.30;;
15946;SDS011;8072;52.554;7.966;2023-02-28T11:58:55;1.97;;;1.70;;
15946;SDS011;8072;52.554;7.966;2023-02-28T12:06:55;2.60;;;1.60;;
15946;SDS011;8072;52.554;7.966;2023-02-28T12:18:25;2.10;;;1.80;;
15946;SDS011;8072;52.554;7.966;2023-02-28T12:21:01;1.87;;;1.50;;
15946;SDS011;8072;52.554;7.966;2023-02-28T12:26:54;2.77;;;1.80;;
15946;SDS011;8072;52.554;7.966;2023-02-28T12:32:04;1.50;;;1.40;;
15946;SDS011;8072;52.554;7.966;2023-02-28T12:34:55;1.77;;;1.63;;
15946;SDS011;8072;52.554;7.966;2023-02-28T12:37:34;2.70;;;2.07;;
15946;SDS011;8072;52.554;7.966;2023-02-28T12:40:28;1.93;;;1.70;;
15946;SDS011;8072;52.554;7.966;2023-02-28T12:42:58;2.87;;;1.57;;
15946;SDS011;8072;52.554;7.966;2023-02-28T12:45:39;1.80;;;1.70;;
15946;SDS011;8072;52.554;7.966;2023-02-28T12:48:27;1.77;;;1.63;;
15946;SDS011;8072;52.554;7.966;2023-02-28T12:51:04;1.70;;;1.50;;
15946;SDS011;8072;52.554;7.966;2023-02-28T12:53:39;1.90;;;1.53;;
15946;SDS011;8072;52.554;7.966;2023-02-28T13:02:19;2.33;;;1.60;;
15946;SDS011;8072;52.554;7.966;2023-02-28T13:10:52;3.87;;;1.70;;
15946;SDS011;8072;52.554;7.966;2023-02-28T13:13:25;2.50;;;1.50;;
15946;SDS011;8072;52.554;7.966;2023-02-28T13:15:58;1.80;;;1.63;;
15946;SDS011;8072;52.554;7.966;2023-02-28T13:18:37;3.43;;;1.60;;
15946;SDS011;8072;52.554;7.966;2023-02-28T13:21:09;1.80;;;1.70;;
15946;SDS011;8072;52.554;7.966;2023-02-28T13:26:21;1.83;;;1.63;;
15946;SDS011;8072;52.554;7.966;2023-02-28T13:34:40;2.50;;;1.77;;
15946;SDS011;8072;52.554;7.966;2023-02-28T13:39:52;1.97;;;1.73;;
15946;SDS011;8072;52.554;7.966;2023-02-28T13:48:17;1.97;;;1.77;;
15946;SDS011;8072;52.554;7.966;2023-02-28T14:06:37;3.43;;;1.80;;
15946;SDS011;8072;52.554;7.966;2023-02-28T14:11:46;1.80;;;1.63;;
15946;SDS011;8072;52.554;7.966;2023-02-28T14:16:59;4.10;;;1.70;;
15946;SDS011;8072;52.554;7.966;2023-02-28T14:19:28;2.03;;;1.70;;
15946;SDS011;8072;52.554;7.966;2023-02-28T14:22:12;2.47;;;1.67;;
15946;SDS011;8072;52.554;7.966;2023-02-28T14:24:59;1.90;;;1.77;;
15946;SDS011;8072;52.554;7.966;2023-02-28T14:28:03;1.77;;;1.67;;
15946;SDS011;8072;52.554;7.966;2023-02-28T14:30:53;2.50;;;1.70;;
15946;SDS011;8072;52.554;7.966;2023-02-28T14:38:52;3.20;;;1.83;;
15946;SDS011;8072;52.554;7.966;2023-02-28T14:41:31;2.20;;;1.90;;
15946;SDS011;8072;52.554;7.966;2023-02-28T14:44:21;2.10;;;1.90;;
15946;SDS011;8072;52.554;7.966;2023-02-28T14:46:54;2.40;;;2.20;;
15946;SDS011;8072;52.554;7.966;2023-02-28T14:49:41;2.93;;;1.87;;
15946;SDS011;8072;52.554;7.966;2023-02-28T14:52:23;2.67;;;2.20;;
15946;SDS011;8072;52.554;7.966;2023-02-28T14:54:58;3.10;;;1.77;;
15946;SDS011;8072;52.554;7.966;2023-02-28T14:57:34;2.10;;;1.90;;
15946;SDS011;8072;52.554;7.966;2023-02-28T15:00:12;2.13;;;1.93;;
15946;SDS011;8072;52.554;7.966;2023-02-28T15:02:42;3.97;;;1.70;;
15946;SDS011;8072;52.554;7.966;2023-02-28T15:07:46;3.03;;;2.20;;
15946;SDS011;8072;52.554;7.966;2023-02-28T15:12:58;3.70;;;2.53;;
15946;SDS011;8072;52.554;7.966;2023-02-28T15:15:45;2.77;;;1.90;;
15946;SDS011;8072;52.554;7.966;2023-02-28T15:18:15;2.13;;;1.90;;
15946;SDS011;8072;52.554;7.966;2023-02-28T15:20:53;2.10;;;1.90;;
15946;SDS011;8072;52.554;7.966;2023-02-28T15:23:20;2.97;;;2.30;;
15946;SDS011;8072;52.554;7.966;2023-02-28T15:25:47;3.03;;;2.10;;
15946;SDS011;8072;52.554;7.966;2023-02-28T15:28:18;2.90;;;1.70;;
15946;SDS011;8072;52.554;7.966;2023-02-28T15:30:54;3.10;;;2.03;;
15946;SDS011;8072;52.554;7.966;2023-02-28T15:33:23;2.13;;;1.93;;
15946;SDS011;8072;52.554;7.966;2023-02-28T15:35:51;3.43;;;1.97;;
15946;SDS011;8072;52.554;7.966;2023-02-28T15:38:27;2.30;;;1.60;;
15946;SDS011;8072;52.554;7.966;2023-02-28T15:40:55;2.00;;;1.77;;
15946;SDS011;8072;52.554;7.966;2023-02-28T15:46:12;4.17;;;2.17;;
15946;SDS011;8072;52.554;7.966;2023-02-28T15:48:54;2.73;;;1.90;;
15946;SDS011;8072;52.554;7.966;2023-02-28T15:51:26;2.57;;;1.80;;
15946;SDS011;8072;52.554;7.966;2023-02-28T15:54:04;2.03;;;1.67;;
15946;SDS011;8072;52.554;7.966;2023-02-28T15:56:44;2.60;;;2.10;;
15946;SDS011;8072;52.554;7.966;2023-02-28T15:59:19;2.27;;;2.07;;
15946;SDS011;8072;52.554;7.966;2023-02-28T16:01:47;3.33;;;2.13;;
15946;SDS011;8072;52.554;7.966;2023-02-28T16:04:54;2.93;;;2.40;;
15946;SDS011;8072;52.554;7.966;2023-02-28T16:07:24;3.30;;;2.20;;
15946;SDS011;8072;52.554;7.966;2023-02-28T16:09:50;7.67;;;3.03;;
15946;SDS011;8072;52.554;7.966;2023-02-28T16:12:16;3.73;;;2.73;;
15946;SDS011;8072;52.554;7.966;2023-02-28T16:14:51;3.63;;;2.50;;
15946;SDS011;8072;52.554;7.966;2023-02-28T16:17:20;4.63;;;2.80;;
15946;SDS011;8072;52.554;7.966;2023-02-28T16:19:48;3.93;;;2.40;;
15946;SDS011;8072;52.554;7.966;2023-02-28T16:22:14;2.70;;;2.30;;
15946;SDS011;8072;52.554;7.966;2023-02-28T16:24:39;3.00;;;2.40;;
15946;SDS011;8072;52.554;7.966;2023-02-28T16:27:06;4.27;;;3.00;;
15946;SDS011;8072;52.554;7.966;2023-02-28T16:29:40;2.73;;;2.33;;
15946;SDS011;8072;52.554;7.966;2023-02-28T16:32:06;2.87;;;2.17;;
15946;SDS011;8072;52.554;7.966;2023-02-28T16:34:33;2.50;;;2.20;;
15946;SDS011;8072;52.554;7.966;2023-02-28T16:36:58;2.90;;;2.23;;
15946;SDS011;8072;52.554;7.966;2023-02-28T16:39:24;2.70;;;2.10;;
15946;SDS011;8072;52.554;7.966;2023-02-28T16:41:50;3.00;;;2.27;;
15946;SDS011;8072;52.554;7.966;2023-02-28T16:44:32;4.17;;;2.37;;
15946;SDS011;8072;52.554;7.966;2023-02-28T16:47:00;3.40;;;2.20;;
15946;SDS011;8072;52.554;7.966;2023-02-28T16:49:27;3.17;;;2.00;;
15946;SDS011;8072;52.554;7.966;2023-02-28T16:51:53;2.37;;;2.17;;
15946;SDS011;8072;52.554;7.966;2023-02-28T16:54:18;2.63;;;2.30;;
15946;SDS011;8072;52.554;7.966;2023-02-28T16:56:45;3.30;;;2.60;;
15946;SDS011;8072;52.554;7.966;2023-02-28T16:59:13;3.10;;;2.37;;
15946;SDS011;8072;52.554;7.966;2023-02-28T17:01:43;3.63;;;2.60;;
15946;SDS011;8072;52.554;7.966;2023-02-28T17:04:10;2.30;;;2.10;;
15946;SDS011;8072;52.554;7.966;2023-02-28T17:06:37;3.33;;;2.50;;
15946;SDS011;8072;52.554;7.966;2023-02-28T17:09:03;2.40;;;2.13;;
15946;SDS011;8072;52.554;7.966;2023-02-28T17:11:29;3.83;;;2.60;;
15946;SDS011;8072;52.554;7.966;2023-02-28T17:13:55;3.13;;;2.10;;
15946;SDS011;8072;52.554;7.966;2023-02-28T17:16:30;3.83;;;2.33;;
15946;SDS011;8072;52.554;7.966;2023-02-28T17:19:03;2.80;;;2.50;;
15946;SDS011;8072;52.554;7.966;2023-02-28T17:21:31;2.43;;;2.20;;
15946;SDS011;8072;52.554;7.966;2023-02-28T17:23:58;3.17;;;2.30;;
15946;SDS011;8072;52.554;7.966;2023-02-28T17:26:24;2.93;;;2.40;;
15946;SDS011;8072;52.554;7.966;2023-02-28T17:28:51;3.23;;;2.30;;
15946;SDS011;8072;52.554;7.966;2023-02-28T17:31:20;3.13;;;2.43;;
15946;SDS011;8072;52.554;7.966;2023-02-28T17:33:47;3.00;;;2.67;;
15946;SDS011;8072;52.554;7.966;2023-02-28T17:36:17;3.93;;;3.23;;
15946;SDS011;8072;52.554;7.966;2023-02-28T17:38:47;6.10;;;3.43;;
15946;SDS011;8072;52.554;7.966;2023-02-28T17:41:14;23.83;;;12.07;;
15946;SDS011;8072;52.554;7.966;2023-02-28T17:43:39;18.73;;;8.97;;
15946;SDS011;8072;52.554;7.966;2023-02-28T17:46:06;16.70;;;9.33;;
15946;SDS011;8072;52.554;7.966;2023-02-28T17:48:45;18.13;;;8.77;;
15946;SDS011;8072;52.554;7.966;2023-02-28T17:51:15;14.57;;;8.73;;
15946;SDS011;8072;52.554;7.966;2023-02-28T17:53:42;14.43;;;9.07;;
15946;SDS011;8072;52.554;7.966;2023-02-28T17:56:12;13.93;;;8.07;;
15946;SDS011;8072;52.554;7.966;2023-02-28T17:58:40;11.37;;;6.93;;
15946;SDS011;8072;52.554;7.966;2023-02-28T18:01:06;11.10;;;6.40;;
15946;SDS011;8072;52.554;7.966;2023-02-28T18:03:32;10.03;;;5.87;;
15946;SDS011;8072;52.554;7.966;2023-02-28T18:05:58;9.87;;;5.73;;
15946;SDS011;8072;52.554;7.966;2023-02-28T18:08:24;10.07;;;5.77;;